METAR Data
IDs: Format: Raw Decoded Include TAF

Data at: 1519 UTC 21 Sep 2018

KCNC 211515Z AUTO 32012G18KT 10SM BKN020 BKN028 16/12 A3010 RMK AO2
KCNC 211455Z AUTO 31017G24KT 10SM BKN022 16/12 A3009 RMK AO2
KCNC 211435Z AUTO 31012G18KT 10SM BKN023 16/12 A3008 RMK AO2
KCNC 211415Z AUTO 30016KT 10SM SCT022 15/12 A3007 RMK AO2
KCNC 211355Z AUTO 32015G21KT 10SM SCT021 15/12 A3005 RMK AO2
KCNC 211335Z AUTO 31014G19KT 10SM FEW019 15/13 A3005 RMK AO2
KCNC 211315Z AUTO 30011G17KT 10SM FEW018 15/13 A3004 RMK AO2
KCNC 211255Z AUTO 29010KT 10SM CLR 15/14 A3003 RMK AO2
KCNC 211235Z AUTO 27011G16KT 10SM CLR 15/14 A3002 RMK AO2
KCNC 211215Z AUTO 29011KT 10SM CLR 15/14 A3000 RMK AO2
KCNC 211155Z AUTO 29012KT 10SM FEW015 16/14 A2999 RMK AO2
KCNC 211135Z AUTO 28012KT 10SM FEW015 16/15 A2999 RMK AO2
KCNC 211115Z AUTO 29009KT 10SM CLR 16/15 A2998 RMK AO2
KCNC 211055Z AUTO 29012KT 10SM FEW017 16/15 A2996 RMK AO2
KCNC 211035Z AUTO 28011G20KT 10SM BKN017 BKN022 17/15 A2995 RMK AO2
KCNC 211015Z AUTO 28011G22KT 18/16 A2994 RMK AO2
KCNC 210955Z AUTO 30013KT 10SM FEW006 OVC012 18/18 A2993 RMK AO2
KCNC 210935Z AUTO 30012KT 9SM BKN007 OVC012 19/18 A2991 RMK AO2
KCNC 210915Z AUTO 27014G19KT 10SM BKN008 OVC012 20/19 A2989 RMK AO2
KCNC 210855Z AUTO 24010KT 10SM BKN012 BKN019 OVC025 20/19 A2989 RMK AO2
KCNC 210835Z AUTO 24008KT 10SM SCT025 BKN029 OVC120 20/19 A2987 RMK AO2
KCNC 210815Z AUTO 22005KT 10SM FEW008 SCT035 BKN120 20/19 A2986 RMK AO2
KCNC 210755Z AUTO 25006KT 10SM -DZ BKN007 BKN050 OVC095 20/19 A2986 RMK AO2 P0003
KCNC 210735Z AUTO 21006KT 8SM -DZ SCT007 BKN026 OVC110 20/20 A2986 RMK AO2
KCNC 210715Z AUTO VRB03KT 5SM -RA FEW020 BKN039 OVC110 20/19 A2983 RMK AO2
KCNC 210655Z AUTO 22003KT 8SM -RA SCT035 BKN075 OVC120 20/19 A2984 RMK AO2 P0004
KCNC 210635Z AUTO 21004KT 9SM -DZ FEW037 SCT060 BKN080 20/19 A2984 RMK AO2
KCNC 210615Z AUTO 20004KT 10SM -DZ SCT029 BKN060 OVC075 20/19 A2985 RMK AO2
KCNC 210555Z AUTO 24004KT 7SM SCT028 BKN060 OVC070 20/19 A2986 RMK AO2 P0007
KCNC 210535Z AUTO 21009KT 4SM -RA FEW016 BKN060 OVC070 20/19 A2987 RMK AO2
KCNC 210515Z AUTO 30007KT 10SM FEW022 OVC060 20/19 A2984 RMK AO2
KCNC 210455Z AUTO 31007G13KT 5SM +RA FEW002 SCT024 BKN039 20/19 A2985 RMK AO2 P0021
KCNC 210435Z AUTO 30013G22KT 3SM -RA FEW002 SCT032 BKN044 20/19 A2986 RMK AO2
KCNC 210415Z AUTO 29029G37KT 10SM FEW036 BKN042 BKN055 24/18 A2985 RMK AO2
KCNC 210355Z AUTO 21016G24KT 10SM CLR 27/19 A2976 RMK AO2
KCNC 210335Z AUTO 21013G22KT 10SM CLR 27/19 A2976 RMK AO2
KCNC 210315Z AUTO 21014G22KT 10SM CLR 27/20 A2975 RMK AO2
KCNC 210255Z AUTO 21013G18KT 10SM CLR 27/20 A2975 RMK AO2
KCNC 210235Z AUTO 20013KT 10SM CLR 27/20 A2974 RMK AO2
KCNC 210215Z AUTO 20013KT 10SM CLR 27/20 A2973 RMK AO2
KCNC 210155Z AUTO 20014G23KT 10SM CLR 28/20 A2973 RMK AO2
KCNC 210135Z AUTO 20013G22KT 10SM CLR 28/20 A2971 RMK AO2
KCNC 210115Z AUTO 20014G22KT 10SM CLR 29/20 A2970 RMK AO2
KCNC 210055Z AUTO 19017G25KT 10SM CLR 29/20 A2969 RMK AO2
KCNC 210035Z AUTO 19019G24KT 10SM CLR 29/20 A2969 RMK AO2
KCNC 210015Z AUTO 19017G28KT 10SM CLR 29/20 A2969 RMK AO2
KCNC 202355Z AUTO 19016G24KT 10SM CLR 30/20 A2969 RMK AO2
KCNC 202335Z AUTO 19015G25KT 10SM CLR 30/20 A2969 RMK AO2
KCNC 202315Z AUTO 20017G26KT 10SM CLR 31/20 A2970 RMK AO2
KCNC 202255Z AUTO 20017G28KT 10SM CLR 31/20 A2971 RMK AO2
KCNC 202235Z AUTO 20016G24KT 10SM CLR 32/20 A2971 RMK AO2
KCNC 202215Z AUTO 20020G36KT 10SM FEW055 32/20 A2971 RMK AO2
KCNC 202155Z AUTO 19019G28KT 10SM FEW055 32/20 A2972 RMK AO2
KCNC 202135Z AUTO 20021G28KT 10SM FEW055 32/20 A2973 RMK AO2
KCNC 202115Z AUTO 19021G29KT 10SM FEW055 33/20 A2973 RMK AO2
KCNC 202055Z AUTO 20018G28KT 10SM CLR 32/20 A2974 RMK AO2
KCNC 202035Z AUTO 19019G28KT 10SM FEW055 32/20 A2975 RMK AO2
KCNC 202015Z AUTO 19018G29KT 10SM CLR 33/20 A2975 RMK AO2
KCNC 201955Z AUTO 19021G29KT 10SM CLR 32/20 A2976 RMK AO2
KCNC 201935Z AUTO 21021G30KT 10SM CLR 33/20 A2976 RMK AO2
KCNC 201915Z AUTO 18019G26KT 10SM CLR 32/20 A2977 RMK AO2
KCNC 201855Z AUTO 20020G26KT 10SM CLR 32/20 A2978 RMK AO2
KCNC 201835Z AUTO 19017G28KT 10SM CLR 32/21 A2979 RMK AO2
KCNC 201815Z AUTO 19017G23KT 10SM FEW048 32/21 A2980 RMK AO2
KCNC 201755Z AUTO 19020G26KT 10SM CLR 32/21 A2981 RMK AO2
KCNC 201735Z AUTO 20014G25KT 10SM CLR 31/21 A2982 RMK AO2
KCNC 201715Z AUTO 20018G24KT 10SM CLR 31/21 A2982 RMK AO2
KCNC 201655Z AUTO 21016G23KT 10SM CLR 31/22 A2983 RMK AO2
KCNC 201635Z AUTO 21013G19KT 10SM CLR 31/22 A2984 RMK AO2
KCNC 201615Z AUTO 21016G24KT 10SM CLR 30/21 A2984 RMK AO2
KCNC 201555Z AUTO 22016G27KT 10SM CLR 29/21 A2985 RMK AO2
KCNC 201535Z AUTO 22014G21KT 10SM CLR 29/21 A2985 RMK AO2
KCNC 201515Z AUTO 22013G20KT 10SM CLR 28/21 A2985 RMK AO2
KCNC 201455Z AUTO 22013G21KT 10SM CLR 28/21 A2986 RMK AO2
KCNC 201435Z AUTO 20014KT 10SM CLR 27/22 A2985 RMK AO2
KCNC 201415Z AUTO 20016KT 10SM CLR 26/22 A2986 RMK AO2
KCNC 201355Z AUTO 19012G17KT 10SM 25/22 A2986 RMK AO2
KCNC 201335Z AUTO 19013KT 10SM CLR 25/22 A2986 RMK AO2
KCNC 201315Z AUTO 18010KT 10SM CLR 24/21 A2987 RMK AO2
KCNC 201255Z AUTO 18008KT 10SM CLR 23/21 A2987 RMK AO2
KCNC 201235Z AUTO 18009KT 10SM CLR 23/21 A2987 RMK AO2
KCNC 201215Z AUTO 19006KT 10SM CLR 22/21 A2987 RMK AO2
KCNC 201155Z AUTO 19009KT 10SM CLR 23/21 A2987 RMK AO2
KCNC 201135Z AUTO 20010KT 10SM CLR 23/21 A2987 RMK AO2
KCNC 201115Z AUTO 19009KT 10SM CLR 23/21 A2987 RMK AO2
KCNC 201055Z AUTO 19008KT 10SM CLR 22/21 A2987 RMK AO2
KCNC 201035Z AUTO 19006KT 10SM CLR 22/21 A2987 RMK AO2
KCNC 201015Z AUTO 18007KT 10SM CLR 22/21 A2987 RMK AO2
KCNC 200955Z AUTO 17007KT 10SM CLR 22/21 A2987 RMK AO2
KCNC 200935Z AUTO 15006KT 10SM CLR 22/21 A2987 RMK AO2
KCNC 200915Z AUTO 15006KT 10SM CLR 22/21 A2987 RMK AO2
KCNC 200855Z AUTO 15005KT 10SM FEW060 FEW070 22/21 A2987 RMK AO2
KCNC 200835Z AUTO 15006KT 10SM FEW060 SCT075 SCT085 22/21 A2987 RMK AO2
KCNC 200815Z AUTO 15006KT 10SM FEW060 FEW075 22/22 A2988 RMK AO2
KCNC 200755Z AUTO 15005KT 10SM SCT060 SCT070 22/22 A2988 RMK AO2
KCNC 200735Z AUTO 16005KT 10SM BKN065 BKN080 23/22 A2988 RMK AO2
KCNC 200715Z AUTO 16006KT 10SM SCT070 SCT080 23/22 A2988 RMK AO2
KCNC 200655Z AUTO 15006KT 10SM CLR 22/22 A2988 RMK AO2
KCNC 200635Z AUTO 15007KT 9SM CLR 22/22 A2989 RMK AO2
KCNC 200615Z AUTO 14005KT 10SM CLR 22/22 A2990 RMK AO2
KCNC 200555Z AUTO 15005KT 10SM CLR 23/22 A2990 RMK AO2
KCNC 200535Z AUTO 16006KT 10SM FEW065 23/22 A2989 RMK AO2
KCNC 200515Z AUTO 15006KT 10SM FEW065 23/22 A2990 RMK AO2
KCNC 200455Z AUTO 14006KT 10SM FEW060 SCT070 23/22 A2990 RMK AO2
KCNC 200435Z AUTO 14004KT 23/22 A2989 RMK AO2
KCNC 200415Z AUTO 14007KT 10SM SCT055 BKN070 OVC080 23/22 A2989 RMK AO2
KCNC 200355Z AUTO 14006KT 10SM BKN060 BKN070 OVC080 24/22 A2988 RMK AO2
KCNC 200335Z AUTO 14006KT 10SM BKN060 BKN075 23/22 A2988 RMK AO2